Startpagina
METAR-TAF:

METAR-TAF

Vliegvelden :

Luchthaven Tunis-Carthage

Tunis, Tunesië

breedte: 36-50N, lengte: 010-14E, hoogte: 3 m

Actueel weer

Dit bericht is 23 minuten geleden gemaakt, om 13:30 UTC
Wind 16 kt uit het noordwesten
Temperatuur 25°C
Vochtigheid 36%
Druk 1019 hPa
Zicht 10 km of meer
Weinig wolken op 4600 ft

METAR: DTTA 261330Z 32016KT 9999 FEW046 25/09 Q1019

Tijdstip: 14:53 (13:53 UTC)

Verwachting

Dit bericht is 2 uur en het 53 minuten geleden gemaakt, om 11:00 UTC
Verwachting geldig van 26 om 12 UTC tot 27 om 12 UTC
Wind 15 kt uit het noorden
Zicht 10 km of meer
Verspreide wolken op 3300 ft
Kans 40% :
Tijdelijke
van 26 om 19 UTC tot 27 om 01 UTC
Zicht: 4000 m
Weinig wolken op 2600 ft, Cumulonimbus.
onweer, (lichte) regenbuien
Wijzigt naar
van 26 om 22 UTC tot 26 om 24 UTC
Wind 15 kt uit het westnoordwesten

TAF: DTTA 261100Z 2612/2712 36015KT 9999 SCT033 PROB40 TEMPO 2619/2701 4000 -TS SHRA FEW026CB BECMG 2622/2624 29015KT

Waarnemingen en weersverwachtingen van meer dan 4000 vliegvelden (METAR en TAF).

De beschikbare stations zijn de gele en rode punten op de kaart.

Ga met uw muis naar het station om de naam te zien.

Klik dan om waarnemingen en weersverwachtingen te zien.

kaart wijzigen: klik op de groene knoppen met een zwart kruis om in te zoomen, op de groene knop met een streepje om uit te zoomen of op de groene pijlen voor aangrenzende kaarten.


METAR-TAF: